Startpagina
METAR-TAF:

METAR-TAF

Vliegvelden :

Puerto Francisco de Orellana, Ecuador

breedte: 00-27-46S, lengte: 076-59-12W, hoogte: 254 m

Actueel weer

Dit bericht is 10 uur en het 57 minuten geleden gemaakt, om 23:00 UTC
Wind 2 kt uit het noordoosten
Temperatuur 25°C
Vochtigheid 94%
Druk 1008 hPa
Zicht 10 km of meer
Verspreide wolken op 2600 ft
Gebroken wolken op 10000 ft

METAR: SECO 162300Z 05002KT 9999 SCT026 BKN100 25/24 Q1008 RMK A2979

Tijdstip: 04:57 (09:57 UTC)


TAF: ontbreekt

Waarnemingen en weersverwachtingen van meer dan 4000 vliegvelden (METAR en TAF).

De beschikbare stations zijn de gele en rode punten op de kaart.

Ga met uw muis naar het station om de naam te zien.

Klik dan om waarnemingen en weersverwachtingen te zien.

kaart wijzigen: klik op de groene knoppen met een zwart kruis om in te zoomen, op de groene knop met een streepje om uit te zoomen of op de groene pijlen voor aangrenzende kaarten.


METAR-TAF: